CYDB

Details ICAO CYDB (YDB)
Name BURWASH
Region Canada
Timezone America/Whitehorse (UTC-7.0)
Plans Departing 8
Arriving 8
Stats Elevation 2,647 ft / 807 m (AMSL)
Location 61.371111° -139.040558°
Runways 1
Magnetic Variation 19.081° E
Sunrise 2018-05-22 12:11:36 UTC / 2018-05-22 05:11:36 Local
Sunset 2018-05-23 06:16:58 UTC / 2018-05-22 23:16:58 Local
Advertisement - Login to hide

Runways

ID Width Length Bearing (true) Bearing (mag) Surface Threshold Offset Overrun Length
10 100 ft / 30 m 4,986 ft / 1,520 m 127.81° 108.73° Gravel 0 ft / 0 m 0 ft / 0 m
28 100 ft / 30 m 4,986 ft / 1,520 m 307.83° 288.75° Gravel 0 ft / 0 m 0 ft / 0 m

Map

Weather


0- 5 10 15 20 25 30 35+ Temperature / ° C

Clouds and Precipitation
Forecast for 2018-05-22 12:00 UTC. Updated 2 hours ago

Ground ~20,000 ft ~40,000 ft Winds

METAR

CYDB 221000Z AUTO 14018G25KT 9SM CLR 04/M03 A2949 RMK SLP012

TAF

TAF CYDB 220538Z 2206/2218 13018G28KT P6SM FEW230 FM221100 13010KT P6SM SCT080 TEMPO 2211/2214 BKN060 FM221400 13010KT P6SM SCT040 BKN080 TEMPO 2214/2218 P6SM -SHRA BKN040 OVC080 RMK FCST BASED ON AUTO OBS. NXT FCST BY 221200Z

Frequencies

Recorded 128.70 MHz AWOS
Unicom 122.10 MHz MANDTORY FREQUENCY
Warning: Do not use this data for real-world aviation or navigation. No guarantee of current accuracy is given.